Time;durP1;ratioP1;P1;durP2;ratioP2;P2;SDS_P1;SDS_P2;PMS_P1;PMS_P2;Temp;Humidity;BMP_temperature;BMP_pressure;BME280_temperature;BME280_humidity;BME280_pressure;Samples;Min_cycle;Max_cycle;Signal;HPM_P1;HPM_P2
2023/10/20 00:00:58;;;;;;;72.20;34.90;;;;;;;;;;5049706;28;20440;-77
2023/10/20 00:03:24;;;;;;;62.50;35.42;;;;;;;;;;5049230;28;20029;-77
2023/10/20 00:05:50;;;;;;;67.78;34.08;;;;;;;;;;5050382;28;20028;-77
2023/10/20 00:08:15;;;;;;;73.07;34.08;;;;;;;;;;5032734;28;20082;-77
2023/10/20 00:10:41;;;;;;;67.70;37.30;;;;;;;;;;5032843;28;20110;-77
2023/10/20 00:13:06;;;;;;;62.85;35.17;;;;;;;;;;5050823;28;20460;-77
2023/10/20 00:15:33;;;;;;;70.03;34.13;;;;;;;;;;5010287;28;1395121;-76
2023/10/20 00:17:59;;;;;;;75.63;36.63;;;;;;;;;;5071623;28;20036;-76
2023/10/20 00:20:24;;;;;;;69.22;34.70;;;;;;;;;;5053494;28;20030;-77
2023/10/20 00:22:50;;;;;;;69.10;34.60;;;;;;;;;;5071168;28;20027;-76
2023/10/20 00:25:17;;;;;;;63.22;33.97;;;;;;;;;;5053241;28;20025;-76
2023/10/20 00:27:42;;;;;;;73.63;35.47;;;;;;;;;;5053067;28;20059;-75
2023/10/20 00:30:09;;;;;;;71.38;36.95;;;;;;;;;;5071184;28;20415;-76
2023/10/20 00:32:39;;;;;;;65.13;34.22;;;;;;;;;;5069516;28;20083;-76
2023/10/20 00:35:05;;;;;;;71.30;34.97;;;;;;;;;;5053117;28;20406;-77
2023/10/20 00:37:31;;;;;;;70.95;34.35;;;;;;;;;;5053154;28;20024;-77
2023/10/20 00:39:57;;;;;;;70.50;35.97;;;;;;;;;;5069522;28;20020;-78
2023/10/20 00:42:23;;;;;;;71.40;36.80;;;;;;;;;;5070061;28;20032;-76
2023/10/20 00:44:49;;;;;;;71.15;35.58;;;;;;;;;;5053001;28;20045;-78
2023/10/20 00:47:16;;;;;;;75.15;35.25;;;;;;;;;;5053137;28;20161;-77
2023/10/20 00:49:42;;;;;;;70.75;34.22;;;;;;;;;;5053094;28;20042;-77
2023/10/20 00:52:09;;;;;;;69.05;34.10;;;;;;;;;;5071354;28;20016;-77
2023/10/20 00:54:36;;;;;;;67.72;34.88;;;;;;;;;;5066962;28;20028;-78
2023/10/20 00:57:02;;;;;;;68.00;35.75;;;;;;;;;;5053077;28;20388;-77
2023/10/20 00:59:27;;;;;;;75.88;35.75;;;;;;;;;;5071128;28;20055;-77
2023/10/20 01:01:54;;;;;;;69.05;35.45;;;;;;;;;;5070000;28;20063;-76
2023/10/20 01:04:20;;;;;;;71.35;34.95;;;;;;;;;;5086595;28;20074;-78
2023/10/20 01:06:48;;;;;;;72.78;36.00;;;;;;;;;;5052222;28;20033;-77
2023/10/20 01:09:25;;;;;;;72.95;35.25;;;;;;;;;;5069055;28;20024;-77
2023/10/20 01:11:51;;;;;;;77.30;35.53;;;;;;;;;;5069499;28;20017;-77
2023/10/20 01:14:16;;;;;;;74.22;37.80;;;;;;;;;;5048702;28;20114;-79
2023/10/20 01:16:42;;;;;;;72.50;35.67;;;;;;;;;;5046491;28;20031;-77
2023/10/20 01:19:08;;;;;;;84.63;38.80;;;;;;;;;;5048926;28;20465;-78
2023/10/20 01:21:34;;;;;;;70.53;34.33;;;;;;;;;;5049809;28;20032;-77
2023/10/20 01:24:02;;;;;;;82.90;37.78;;;;;;;;;;5049001;28;20024;-76
2023/10/20 01:26:29;;;;;;;82.00;37.88;;;;;;;;;;5062725;28;20117;-77
2023/10/20 01:28:55;;;;;;;82.95;38.45;;;;;;;;;;5048819;28;20057;-77
2023/10/20 01:31:21;;;;;;;78.82;36.88;;;;;;;;;;5050976;28;20115;-79
2023/10/20 01:33:46;;;;;;;75.80;37.97;;;;;;;;;;5052080;28;20055;-77
2023/10/20 01:36:12;;;;;;;74.80;36.50;;;;;;;;;;5053507;28;20051;-77
2023/10/20 01:38:37;;;;;;;82.65;36.47;;;;;;;;;;5050812;28;20057;-76
2023/10/20 01:41:03;;;;;;;84.75;37.05;;;;;;;;;;5048421;28;20048;-76
2023/10/20 01:43:28;;;;;;;77.80;35.70;;;;;;;;;;5048969;28;20572;-77
2023/10/20 01:45:55;;;;;;;77.72;36.25;;;;;;;;;;5050326;28;20054;-76
2023/10/20 01:48:20;;;;;;;79.47;36.78;;;;;;;;;;5048300;28;20108;-76
2023/10/20 01:50:46;;;;;;;84.45;36.88;;;;;;;;;;5044522;28;20104;-77
2023/10/20 01:53:11;;;;;;;82.03;38.13;;;;;;;;;;5061911;28;20018;-77
2023/10/20 01:55:39;;;;;;;83.93;38.15;;;;;;;;;;5045170;28;20029;-77
2023/10/20 01:58:06;;;;;;;82.47;39.20;;;;;;;;;;5049425;28;20099;-76
2023/10/20 02:00:31;;;;;;;76.30;36.78;;;;;;;;;;5049968;28;20025;-77
2023/10/20 02:02:57;;;;;;;83.15;37.42;;;;;;;;;;5046509;28;20036;-77
2023/10/20 02:05:23;;;;;;;87.13;39.35;;;;;;;;;;5045650;28;20048;-77
2023/10/20 02:07:49;;;;;;;86.25;39.20;;;;;;;;;;5046108;28;20079;-77
2023/10/20 02:10:15;;;;;;;84.07;39.35;;;;;;;;;;5045087;28;20067;-78
2023/10/20 02:12:41;;;;;;;72.78;37.72;;;;;;;;;;5045335;28;20137;-75
2023/10/20 02:15:07;;;;;;;80.93;38.22;;;;;;;;;;5060497;28;20086;-76
2023/10/20 02:17:35;;;;;;;84.03;37.92;;;;;;;;;;5052394;28;20052;-77
2023/10/20 02:20:00;;;;;;;82.03;39.22;;;;;;;;;;5052301;28;20082;-76
2023/10/20 02:22:26;;;;;;;78.45;37.42;;;;;;;;;;5053592;28;20397;-76
2023/10/20 02:24:52;;;;;;;80.35;37.35;;;;;;;;;;5069806;28;20534;-76
2023/10/20 02:27:19;;;;;;;90.70;38.88;;;;;;;;;;5052585;28;20080;-77
2023/10/20 02:29:45;;;;;;;89.55;39.80;;;;;;;;;;5053860;28;20701;-76
2023/10/20 02:32:12;;;;;;;84.93;38.53;;;;;;;;;;5073300;28;20021;-76
2023/10/20 02:34:37;;;;;;;75.95;36.72;;;;;;;;;;5070672;28;20028;-77
2023/10/20 02:37:03;;;;;;;78.55;38.28;;;;;;;;;;5069666;28;20032;-77
2023/10/20 02:39:29;;;;;;;76.93;35.35;;;;;;;;;;5068638;28;20060;-76
2023/10/20 02:41:55;;;;;;;82.75;37.38;;;;;;;;;;5068941;28;20024;-76
2023/10/20 02:44:27;;;;;;;76.50;36.38;;;;;;;;;;5069154;28;20028;-77
2023/10/20 02:46:53;;;;;;;76.47;36.75;;;;;;;;;;5050684;28;20051;-76
2023/10/20 02:49:18;;;;;;;79.45;36.85;;;;;;;;;;5068082;28;20059;-77
2023/10/20 02:51:45;;;;;;;79.63;38.80;;;;;;;;;;5069094;28;20040;-76
2023/10/20 02:54:10;;;;;;;85.95;39.38;;;;;;;;;;5067343;28;20058;-78
2023/10/20 02:56:36;;;;;;;74.07;35.15;;;;;;;;;;5069093;28;20096;-77
2023/10/20 02:59:01;;;;;;;80.82;37.50;;;;;;;;;;5069015;28;20033;-77
2023/10/20 03:01:27;;;;;;;75.50;36.55;;;;;;;;;;5067901;28;20032;-76
2023/10/20 03:03:52;;;;;;;77.63;37.92;;;;;;;;;;5068883;28;20162;-76
2023/10/20 03:06:19;;;;;;;79.15;38.17;;;;;;;;;;5070339;28;20128;-76
2023/10/20 03:08:45;;;;;;;78.75;36.78;;;;;;;;;;5054405;28;20040;-77
2023/10/20 03:11:11;;;;;;;69.82;34.80;;;;;;;;;;5054519;28;20436;-77
2023/10/20 03:13:37;;;;;;;85.78;36.83;;;;;;;;;;5054370;28;20500;-77
2023/10/20 03:16:03;;;;;;;77.93;35.78;;;;;;;;;;5051465;28;20960;-76
2023/10/20 03:18:29;;;;;;;81.65;38.22;;;;;;;;;;5051413;28;20032;-77
2023/10/20 03:21:01;;;;;;;77.28;37.13;;;;;;;;;;5051334;28;20419;-76
2023/10/20 03:23:27;;;;;;;84.22;35.53;;;;;;;;;;5051359;28;20021;-75
2023/10/20 03:25:54;;;;;;;79.03;34.15;;;;;;;;;;5050842;28;20025;-76
2023/10/20 03:28:19;;;;;;;76.70;35.22;;;;;;;;;;5053491;28;20149;-75
2023/10/20 03:30:46;;;;;;;81.30;37.40;;;;;;;;;;5053862;28;20622;-76
2023/10/20 03:33:15;;;;;;;75.97;35.45;;;;;;;;;;5053939;28;20074;-77
2023/10/20 03:35:41;;;;;;;76.38;34.95;;;;;;;;;;5065718;28;20035;-77
2023/10/20 03:38:07;;;;;;;78.97;36.20;;;;;;;;;;5049294;28;20124;-77
2023/10/20 03:40:42;;;;;;;81.50;35.78;;;;;;;;;;5049403;28;20034;-77
2023/10/20 03:43:09;;;;;;;69.90;35.78;;;;;;;;;;5055312;28;20029;-76
2023/10/20 03:45:48;;;;;;;84.70;37.80;;;;;;;;;;5037418;28;20103;-77
2023/10/20 03:48:14;;;;;;;83.95;38.25;;;;;;;;;;5052383;28;20025;-77
2023/10/20 03:50:41;;;;;;;76.07;35.22;;;;;;;;;;5051309;28;20095;-77
2023/10/20 03:53:11;;;;;;;71.57;35.20;;;;;;;;;;5064683;28;20450;-77
2023/10/20 03:55:36;;;;;;;79.72;36.10;;;;;;;;;;5031284;28;20516;-77
2023/10/20 03:58:02;;;;;;;68.97;35.40;;;;;;;;;;5052406;28;20032;-76
2023/10/20 04:00:28;;;;;;;69.90;34.72;;;;;;;;;;5065945;28;20067;-76
2023/10/20 04:02:55;;;;;;;69.88;33.50;;;;;;;;;;5050872;28;20064;-77
2023/10/20 04:05:21;;;;;;;68.15;34.72;;;;;;;;;;5053429;28;20124;-78
2023/10/20 04:07:46;;;;;;;73.82;34.25;;;;;;;;;;5054737;28;20036;-76
2023/10/20 04:10:12;;;;;;;73.40;35.80;;;;;;;;;;5055627;28;20025;-77
2023/10/20 04:12:45;;;;;;;70.80;35.03;;;;;;;;;;5043488;28;20481;-78
2023/10/20 04:15:25;;;;;;;81.07;35.63;;;;;;;;;;5065600;28;20166;-78
2023/10/20 04:17:54;;;;;;;74.13;34.97;;;;;;;;;;5061774;28;20476;-78
2023/10/20 04:20:21;;;;;;;65.18;33.53;;;;;;;;;;5058293;28;20085;-77
2023/10/20 04:22:50;;;;;;;67.80;33.10;;;;;;;;;;5078179;28;20047;-77
2023/10/20 04:25:21;;;;;;;69.75;33.22;;;;;;;;;;5072988;28;20055;-78
2023/10/20 04:27:50;;;;;;;78.17;35.30;;;;;;;;;;5091557;28;20036;-77
2023/10/20 05:00:31;;;;;;;76.85;34.85;;;;;;;;;;5080463;28;20027;-74
2023/10/20 05:07:58;;;;;;;73.85;35.03;;;;;;;;;;5068731;28;20031;-73
2023/10/20 05:10:24;;;;;;;74.70;34.53;;;;;;;;;;5069936;28;20028;-75
2023/10/20 05:12:51;;;;;;;76.95;36.38;;;;;;;;;;5046974;28;20070;-74
2023/10/20 05:15:17;;;;;;;78.30;36.58;;;;;;;;;;5066596;28;20041;-72
2023/10/20 05:17:43;;;;;;;86.10;42.05;;;;;;;;;;5064953;28;20028;-72
2023/10/20 05:20:12;;;;;;;92.32;43.55;;;;;;;;;;5063372;28;20051;-74
2023/10/20 05:22:58;;;;;;;74.32;36.20;;;;;;;;;;5050744;28;20087;-76
2023/10/20 05:25:24;;;;;;;78.78;36.25;;;;;;;;;;5064948;28;20063;-76
2023/10/20 05:27:49;;;;;;;82.90;36.42;;;;;;;;;;5068276;28;20828;-75
2023/10/20 05:30:15;;;;;;;75.60;35.83;;;;;;;;;;5051089;28;20571;-72
2023/10/20 05:32:40;;;;;;;78.72;35.63;;;;;;;;;;5046674;28;20012;-73
2023/10/20 05:35:09;;;;;;;81.57;37.08;;;;;;;;;;5063933;28;20118;-74
2023/10/20 05:37:35;;;;;;;79.32;34.60;;;;;;;;;;5066571;28;20527;-78
2023/10/20 05:40:04;;;;;;;89.10;40.17;;;;;;;;;;5059725;28;20036;-74
2023/10/20 05:42:31;;;;;;;77.05;40.13;;;;;;;;;;5067499;28;20037;-71
2023/10/20 05:45:09;;;;;;;81.07;39.20;;;;;;;;;;5044281;28;20048;-71
2023/10/20 05:47:35;;;;;;;83.40;37.95;;;;;;;;;;5060417;28;20326;-72
2023/10/20 05:50:02;;;;;;;77.60;38.25;;;;;;;;;;5049724;28;20463;-72
2023/10/20 05:52:29;;;;;;;79.43;39.55;;;;;;;;;;5040147;28;20028;-74
2023/10/20 05:54:57;;;;;;;75.38;38.60;;;;;;;;;;5045031;28;20159;-74
2023/10/20 05:57:25;;;;;;;76.97;38.75;;;;;;;;;;5061973;28;20044;-73
2023/10/20 05:59:51;;;;;;;79.00;37.00;;;;;;;;;;5056279;28;20024;-73
2023/10/20 06:02:18;;;;;;;75.72;37.97;;;;;;;;;;5059747;28;20027;-72
2023/10/20 06:04:43;;;;;;;89.78;41.53;;;;;;;;;;5059328;28;20495;-76
2023/10/20 06:07:09;;;;;;;83.65;42.28;;;;;;;;;;5059581;28;20024;-73
2023/10/20 06:09:34;;;;;;;76.13;39.20;;;;;;;;;;5067125;28;20479;-73
2023/10/20 06:12:03;;;;;;;78.97;41.13;;;;;;;;;;5060298;28;20052;-73
2023/10/20 06:14:30;;;;;;;78.07;39.08;;;;;;;;;;5058277;28;20045;-73
2023/10/20 06:16:57;;;;;;;85.88;39.58;;;;;;;;;;5057886;28;20021;-74
2023/10/20 06:19:24;;;;;;;76.07;37.92;;;;;;;;;;5036501;28;20036;-74
2023/10/20 06:21:50;;;;;;;76.65;39.63;;;;;;;;;;5030959;28;20028;-75
2023/10/20 06:24:16;;;;;;;73.22;37.90;;;;;;;;;;5043588;28;20032;-73
2023/10/20 06:26:51;;;;;;;72.95;37.72;;;;;;;;;;5052238;28;20518;-72
2023/10/20 06:32:41;;;;;;;72.50;36.58;;;;;;;;;;5056214;28;20033;-73
2023/10/20 06:34:42;;;;;;;68.53;36.53;;;;;;;;;;5032169;28;20036;-74
2023/10/20 06:37:08;;;;;;;78.50;36.15;;;;;;;;;;5039891;28;20036;-74
2023/10/20 06:39:38;;;;;;;77.13;34.70;;;;;;;;;;5052911;28;20032;-75
2023/10/20 06:42:09;;;;;;;73.43;35.08;;;;;;;;;;5060549;28;20043;-75
2023/10/20 06:44:38;;;;;;;72.95;34.88;;;;;;;;;;5057171;28;20048;-75
2023/10/20 06:47:04;;;;;;;75.80;35.05;;;;;;;;;;5058073;28;20043;-73
2023/10/20 06:49:34;;;;;;;69.90;35.97;;;;;;;;;;5058182;28;20029;-77
2023/10/20 06:52:03;;;;;;;67.25;33.85;;;;;;;;;;5050011;28;20495;-76
2023/10/20 06:54:30;;;;;;;69.05;33.45;;;;;;;;;;5063398;28;20142;-76
2023/10/20 06:56:56;;;;;;;70.57;32.38;;;;;;;;;;5060951;28;20082;-74
2023/10/20 06:59:23;;;;;;;69.63;33.72;;;;;;;;;;5060847;28;20135;-76
2023/10/20 07:01:50;;;;;;;67.28;33.63;;;;;;;;;;5065986;28;20039;-77
2023/10/20 07:04:16;;;;;;;69.28;34.20;;;;;;;;;;5040944;28;20037;-76
2023/10/20 07:06:45;;;;;;;71.20;35.45;;;;;;;;;;5045698;28;20349;-75
2023/10/20 07:09:13;;;;;;;70.57;35.47;;;;;;;;;;5055917;28;20063;-75
2023/10/20 07:11:40;;;;;;;65.82;34.65;;;;;;;;;;5047910;28;20180;-75
2023/10/20 07:14:06;;;;;;;58.65;32.10;;;;;;;;;;5052974;28;20934;-75
2023/10/20 07:16:33;;;;;;;66.30;33.17;;;;;;;;;;5047268;28;20029;-74
2023/10/20 07:19:00;;;;;;;70.95;34.28;;;;;;;;;;5029654;28;20978;-73
2023/10/20 07:21:26;;;;;;;66.90;33.58;;;;;;;;;;5042623;28;20029;-75
2023/10/20 07:23:58;;;;;;;70.38;34.88;;;;;;;;;;5045515;28;20037;-74
2023/10/20 07:26:24;;;;;;;;;;;;;;;;;;5043706;28;20050;-76
2023/10/20 07:28:50;;;;;;;67.55;33.45;;;;;;;;;;5042718;28;19920;-75
2023/10/20 07:31:22;;;;;;;77.68;35.28;;;;;;;;;;5042505;28;20037;-77
2023/10/20 07:33:51;;;;;;;80.10;34.90;;;;;;;;;;5041982;28;20088;-76
2023/10/20 07:36:17;;;;;;;75.03;34.70;;;;;;;;;;5040207;28;20036;-76
2023/10/20 07:38:45;;;;;;;71.38;35.03;;;;;;;;;;5031131;28;20974;-75
2023/10/20 07:41:12;;;;;;;70.75;36.40;;;;;;;;;;5023541;28;20025;-77
2023/10/20 07:43:39;;;;;;;68.88;33.92;;;;;;;;;;5040787;28;20121;-75
2023/10/20 07:46:05;;;;;;;69.47;35.75;;;;;;;;;;5035451;28;20028;-76
2023/10/20 07:48:32;;;;;;;70.90;32.88;;;;;;;;;;5045766;28;20031;-76
2023/10/20 07:51:01;;;;;;;66.70;33.70;;;;;;;;;;5041791;28;20020;-75
2023/10/20 07:53:27;;;;;;;77.35;35.05;;;;;;;;;;5027524;28;20033;-75
2023/10/20 07:55:52;;;;;;;76.50;35.05;;;;;;;;;;5030849;28;20501;-74
2023/10/20 07:58:19;;;;;;;70.45;34.53;;;;;;;;;;5043511;28;20037;-75
2023/10/20 08:00:45;;;;;;;60.95;31.27;;;;;;;;;;5045832;28;20373;-74
2023/10/20 08:03:11;;;;;;;71.07;35.30;;;;;;;;;;5042608;28;20400;-74
2023/10/20 08:05:39;;;;;;;63.33;31.80;;;;;;;;;;5033556;28;20020;-74
2023/10/20 08:08:07;;;;;;;64.10;30.65;;;;;;;;;;5038718;28;20037;-75
2023/10/20 08:10:33;;;;;;;68.25;34.22;;;;;;;;;;5042392;28;20028;-74
2023/10/20 08:13:05;;;;;;;63.97;32.30;;;;;;;;;;5042950;28;20029;-75
2023/10/20 08:15:38;;;;;;;62.95;30.77;;;;;;;;;;5054860;28;20045;-76
2023/10/20 08:18:12;;;;;;;62.13;31.48;;;;;;;;;;5045751;28;20098;-75
2023/10/20 08:20:39;;;;;;;67.88;33.08;;;;;;;;;;5066633;28;20030;-74
2023/10/20 08:23:06;;;;;;;62.55;32.78;;;;;;;;;;5071038;28;20052;-76
2023/10/20 08:25:38;;;;;;;77.63;38.47;;;;;;;;;;5044574;28;20090;-75
2023/10/20 08:28:04;;;;;;;75.45;34.47;;;;;;;;;;5046321;28;20127;-76
2023/10/20 08:30:30;;;;;;;65.22;31.15;;;;;;;;;;5064467;28;20020;-76
2023/10/20 08:32:56;;;;;;;59.22;31.25;;;;;;;;;;5063352;28;20024;-75
2023/10/20 08:35:22;;;;;;;66.72;31.88;;;;;;;;;;5061708;28;20043;-75
2023/10/20 08:37:51;;;;;;;59.88;31.20;;;;;;;;;;5062188;28;20055;-74
2023/10/20 08:40:29;;;;;;;63.72;31.02;;;;;;;;;;5041899;28;20127;-76
2023/10/20 08:42:55;;;;;;;58.75;30.02;;;;;;;;;;5045555;28;20197;-78
2023/10/20 08:45:23;;;;;;;62.40;32.58;;;;;;;;;;5063761;28;20118;-74
2023/10/20 08:47:51;;;;;;;59.80;30.90;;;;;;;;;;5047718;28;20032;-73
2023/10/20 08:50:19;;;;;;;53.50;29.90;;;;;;;;;;5062541;28;20078;-76
2023/10/20 08:52:45;;;;;;;52.25;28.80;;;;;;;;;;5042310;28;20037;-75
2023/10/20 08:55:10;;;;;;;58.97;30.00;;;;;;;;;;5042818;28;20665;-76
2023/10/20 08:57:36;;;;;;;57.05;28.88;;;;;;;;;;5053919;28;20083;-75
2023/10/20 09:00:03;;;;;;;55.70;28.42;;;;;;;;;;5070057;28;20021;-74
2023/10/20 09:02:38;;;;;;;53.58;29.30;;;;;;;;;;5080560;28;20377;-75
2023/10/20 09:05:04;;;;;;;59.55;30.63;;;;;;;;;;5067638;28;20081;-76
2023/10/20 09:07:31;;;;;;;63.40;29.85;;;;;;;;;;5048464;28;20119;-75
2023/10/20 09:09:56;;;;;;;60.55;30.60;;;;;;;;;;5057357;28;20048;-77
2023/10/20 09:12:22;;;;;;;55.17;29.30;;;;;;;;;;5073195;28;20540;-77
2023/10/20 09:14:48;;;;;;;56.80;30.25;;;;;;;;;;5056749;28;20158;-77
2023/10/20 09:17:23;;;;;;;54.00;29.50;;;;;;;;;;5038896;28;20392;-77
2023/10/20 09:19:49;;;;;;;51.70;29.70;;;;;;;;;;5057464;28;20044;-77
2023/10/20 09:22:33;;;;;;;60.88;29.88;;;;;;;;;;5053825;28;20511;-72
2023/10/20 09:25:11;;;;;;;50.63;28.52;;;;;;;;;;5060195;28;20115;-74
2023/10/20 09:27:38;;;;;;;53.67;29.63;;;;;;;;;;5058213;28;20035;-77
2023/10/20 09:30:15;;;;;;;57.97;30.27;;;;;;;;;;5041645;28;20032;-75
2023/10/20 09:32:42;;;;;;;57.78;30.45;;;;;;;;;;5054615;28;20016;-73
2023/10/20 09:35:08;;;;;;;58.17;29.52;;;;;;;;;;5055655;28;20043;-75
2023/10/20 09:37:39;;;;;;;53.65;28.77;;;;;;;;;;5062508;28;20032;-78
2023/10/20 09:40:09;;;;;;;55.35;31.40;;;;;;;;;;5061416;28;20059;-78
2023/10/20 09:42:53;;;;;;;55.75;28.88;;;;;;;;;;5063689;28;20465;-78
2023/10/20 09:45:24;;;;;;;57.60;32.20;;;;;;;;;;5076034;28;20067;-77
2023/10/20 09:47:57;;;;;;;58.28;29.45;;;;;;;;;;5064950;28;20031;-77
2023/10/20 09:50:24;;;;;;;51.42;28.90;;;;;;;;;;5059309;28;20032;-77
2023/10/20 09:52:52;;;;;;;55.00;28.20;;;;;;;;;;5055171;28;20025;-78
2023/10/20 09:55:19;;;;;;;56.65;29.98;;;;;;;;;;5054760;28;20017;-77
2023/10/20 09:57:47;;;;;;;55.30;29.98;;;;;;;;;;5066799;28;20033;-78
2023/10/20 10:00:13;;;;;;;54.97;30.40;;;;;;;;;;5048222;28;20033;-76
2023/10/20 10:02:38;;;;;;;55.95;29.40;;;;;;;;;;5058655;28;20101;-77
2023/10/20 10:05:09;;;;;;;59.10;28.95;;;;;;;;;;5059720;28;20448;-77
2023/10/20 10:07:38;;;;;;;59.37;30.97;;;;;;;;;;5046619;28;20055;-78
2023/10/20 10:10:03;;;;;;;54.38;28.83;;;;;;;;;;5066907;28;20280;-78
2023/10/20 10:12:29;;;;;;;57.83;28.92;;;;;;;;;;5047094;28;20051;-77
2023/10/20 10:15:05;;;;;;;50.90;27.90;;;;;;;;;;5069169;28;20048;-78
2023/10/20 10:17:31;;;;;;;56.28;29.25;;;;;;;;;;5071800;28;20111;-78
2023/10/20 10:19:57;;;;;;;54.85;29.27;;;;;;;;;;5078261;28;20077;-78
2023/10/20 10:22:27;;;;;;;50.15;28.23;;;;;;;;;;5069042;28;20401;-77
2023/10/20 10:24:56;;;;;;;50.00;29.38;;;;;;;;;;5070878;28;20544;-76
2023/10/20 10:27:30;;;;;;;54.10;27.73;;;;;;;;;;5084289;28;20042;-75
2023/10/20 10:30:09;;;;;;;56.28;29.52;;;;;;;;;;5043555;28;20025;-76
2023/10/20 10:32:48;;;;;;;50.17;28.85;;;;;;;;;;5067375;28;20032;-76
2023/10/20 10:35:17;;;;;;;50.78;27.98;;;;;;;;;;5050376;28;20020;-74
2023/10/20 10:38:03;;;;;;;56.42;28.38;;;;;;;;;;5065220;28;20135;-77
2023/10/20 10:40:29;;;;;;;53.00;27.80;;;;;;;;;;5057144;28;20056;-77
2023/10/20 10:42:58;;;;;;;46.83;27.80;;;;;;;;;;5044604;28;20385;-75
2023/10/20 10:45:30;;;;;;;52.88;27.92;;;;;;;;;;5039835;28;20033;-76
2023/10/20 10:48:11;;;;;;;52.28;27.85;;;;;;;;;;5056121;28;20588;-75
2023/10/20 10:50:39;;;;;;;46.20;26.48;;;;;;;;;;5045504;28;20051;-76
2023/10/20 10:53:07;;;;;;;45.00;25.52;;;;;;;;;;5046796;28;20473;-75
2023/10/20 10:55:38;;;;;;;54.03;27.25;;;;;;;;;;5034051;28;20062;-76
2023/10/20 10:58:09;;;;;;;50.58;27.02;;;;;;;;;;5058829;28;20044;-75
2023/10/20 11:00:36;;;;;;;53.13;27.05;;;;;;;;;;5075078;28;20028;-76
2023/10/20 11:03:04;;;;;;;49.50;27.70;;;;;;;;;;5048301;28;20028;-77
2023/10/20 11:05:32;;;;;;;52.88;26.95;;;;;;;;;;5046274;28;20032;-77
2023/10/20 11:08:03;;;;;;;48.00;27.83;;;;;;;;;;5049164;28;20409;-75
2023/10/20 11:10:37;;;;;;;46.80;27.55;;;;;;;;;;5067112;28;20093;-77
2023/10/20 11:13:13;;;;;;;50.53;29.17;;;;;;;;;;5083491;28;20028;-73
2023/10/20 11:15:40;;;;;;;52.25;29.50;;;;;;;;;;5064325;28;20067;-74
2023/10/20 11:18:10;;;;;;;49.83;30.05;;;;;;;;;;5067703;28;20265;-76
2023/10/20 11:20:38;;;;;;;51.38;29.25;;;;;;;;;;5047057;28;20032;-75
2023/10/20 11:23:07;;;;;;;54.38;30.73;;;;;;;;;;5058410;28;20035;-74
2023/10/20 11:25:37;;;;;;;51.70;29.00;;;;;;;;;;5055546;28;20024;-73
2023/10/20 11:28:03;;;;;;;50.80;27.45;;;;;;;;;;5044255;28;20119;-77
2023/10/20 11:30:34;;;;;;;54.35;29.38;;;;;;;;;;5023697;28;20374;-74
2023/10/20 11:33:03;;;;;;;50.75;28.92;;;;;;;;;;5007625;28;20037;-76
2023/10/20 11:35:29;;;;;;;51.90;29.88;;;;;;;;;;5007281;28;20041;-74
2023/10/20 11:37:58;;;;;;;47.15;28.15;;;;;;;;;;5022777;28;20131;-74
2023/10/20 11:40:28;;;;;;;51.25;26.05;;;;;;;;;;5024544;28;20223;-76
2023/10/20 11:42:53;;;;;;;46.78;28.17;;;;;;;;;;5015573;28;20041;-73
2023/10/20 11:45:20;;;;;;;44.55;26.63;;;;;;;;;;5022128;28;20037;-75
2023/10/20 11:47:46;;;;;;;50.75;27.73;;;;;;;;;;4997052;28;20478;-75
2023/10/20 11:50:13;;;;;;;47.50;27.20;;;;;;;;;;5022389;28;20034;-75
2023/10/20 11:52:40;;;;;;;46.17;26.00;;;;;;;;;;5038021;28;20029;-75
2023/10/20 11:55:08;;;;;;;45.17;26.73;;;;;;;;;;4987318;28;20132;-75
2023/10/20 11:57:35;;;;;;;48.60;26.15;;;;;;;;;;5005208;28;20025;-74
2023/10/20 12:00:07;;;;;;;44.60;24.85;;;;;;;;;;5008567;28;20492;-77
2023/10/20 12:02:34;;;;;;;46.90;26.45;;;;;;;;;;5020616;28;20124;-76
2023/10/20 12:05:00;;;;;;;47.00;26.45;;;;;;;;;;5026051;28;20124;-75
2023/10/20 12:07:49;;;;;;;48.30;27.25;;;;;;;;;;5039861;28;20044;-75
2023/10/20 12:10:15;;;;;;;39.05;24.15;;;;;;;;;;5060238;28;20045;-76
2023/10/20 12:12:41;;;;;;;40.28;24.10;;;;;;;;;;5061540;28;20035;-75
2023/10/20 12:15:07;;;;;;;43.78;27.88;;;;;;;;;;5065311;28;20059;-75
2023/10/20 12:17:33;;;;;;;39.88;25.48;;;;;;;;;;5071378;28;20150;-74
2023/10/20 12:19:59;;;;;;;36.03;23.67;;;;;;;;;;5057971;28;20055;-78
2023/10/20 12:22:25;;;;;;;39.55;24.42;;;;;;;;;;5057733;28;20489;-77
2023/10/20 12:24:51;;;;;;;39.33;23.65;;;;;;;;;;5064748;28;20510;-76
2023/10/20 12:27:17;;;;;;;35.83;23.02;;;;;;;;;;5074229;28;20032;-75
2023/10/20 12:29:43;;;;;;;40.40;22.85;;;;;;;;;;5059102;28;20036;-75
2023/10/20 12:32:12;;;;;;;35.08;23.05;;;;;;;;;;5060167;28;20029;-76
2023/10/20 12:34:39;;;;;;;48.08;24.02;;;;;;;;;;5071785;28;20469;-75
2023/10/20 12:37:05;;;;;;;35.03;22.95;;;;;;;;;;5052948;28;20064;-73
2023/10/20 12:39:33;;;;;;;37.88;22.95;;;;;;;;;;5054771;28;20071;-75
2023/10/20 12:42:05;;;;;;;37.40;23.30;;;;;;;;;;5067925;28;20126;-74
2023/10/20 12:44:33;;;;;;;37.60;22.50;;;;;;;;;;5064650;28;20067;-75
2023/10/20 12:46:59;;;;;;;37.05;22.85;;;;;;;;;;5066422;28;20118;-75
2023/10/20 12:49:25;;;;;;;37.50;22.70;;;;;;;;;;5056665;28;20484;-75
2023/10/20 12:51:54;;;;;;;44.78;23.48;;;;;;;;;;5053376;28;20047;-75
2023/10/20 12:54:20;;;;;;;33.60;22.45;;;;;;;;;;5060733;28;20024;-75
2023/10/20 12:57:00;;;;;;;39.22;22.63;;;;;;;;;;5089772;28;20028;-75
2023/10/20 12:59:26;;;;;;;40.00;22.63;;;;;;;;;;5061426;28;20036;-73
2023/10/20 13:01:52;;;;;;;41.83;22.38;;;;;;;;;;5064853;28;20029;-74
2023/10/20 13:04:17;;;;;;;40.08;24.38;;;;;;;;;;5066275;28;20049;-76
2023/10/20 13:06:44;;;;;;;43.60;25.10;;;;;;;;;;5046215;28;20032;-78
2023/10/20 13:09:10;;;;;;;33.63;22.33;;;;;;;;;;5041642;28;20028;-75
2023/10/20 13:11:41;;;;;;;37.67;21.98;;;;;;;;;;5059251;28;20024;-74
2023/10/20 13:14:08;;;;;;;39.15;22.38;;;;;;;;;;5040982;28;20029;-77
2023/10/20 13:16:33;;;;;;;38.97;22.23;;;;;;;;;;5057085;28;20033;-75
2023/10/20 13:18:59;;;;;;;55.92;28.10;;;;;;;;;;5051980;28;20031;-74
2023/10/20 13:21:26;;;;;;;45.35;25.58;;;;;;;;;;5064822;28;20033;-75
2023/10/20 13:23:53;;;;;;;32.53;20.95;;;;;;;;;;5063453;28;20020;-77
2023/10/20 13:26:20;;;;;;;40.28;22.23;;;;;;;;;;5071811;28;20024;-76
2023/10/20 13:28:45;;;;;;;38.60;22.85;;;;;;;;;;5062246;28;20426;-76
2023/10/20 13:31:11;;;;;;;38.72;21.13;;;;;;;;;;5049112;28;20120;-77
2023/10/20 13:33:37;;;;;;;34.10;20.60;;;;;;;;;;5063302;28;20024;-76
2023/10/20 13:36:10;;;;;;;40.53;22.02;;;;;;;;;;5065050;28;20096;-75
2023/10/20 13:38:37;;;;;;;36.90;20.92;;;;;;;;;;5074581;28;20028;-76
2023/10/20 13:41:04;;;;;;;36.90;22.05;;;;;;;;;;5076146;28;20080;-80
2023/10/20 13:43:32;;;;;;;37.80;21.60;;;;;;;;;;5083788;28;20050;-77
2023/10/20 13:45:58;;;;;;;43.22;22.20;;;;;;;;;;5074675;28;20032;-76
2023/10/20 13:48:24;;;;;;;35.55;21.98;;;;;;;;;;5051509;28;20154;-78
2023/10/20 13:50:51;;;;;;;35.90;20.67;;;;;;;;;;5058948;28;20032;-75
2023/10/20 13:53:17;;;;;;;36.53;20.50;;;;;;;;;;5076492;28;20134;-74
2023/10/20 13:55:44;;;;;;;34.10;19.98;;;;;;;;;;5045579;28;20552;-73
2023/10/20 13:58:13;;;;;;;43.85;22.40;;;;;;;;;;5069309;28;20109;-76
2023/10/20 14:00:39;;;;;;;32.05;21.02;;;;;;;;;;5048580;28;20115;-75
2023/10/20 14:03:07;;;;;;;40.22;21.08;;;;;;;;;;5080296;28;20059;-75
2023/10/20 14:05:32;;;;;;;34.58;19.73;;;;;;;;;;5096181;28;20020;-76
2023/10/20 14:08:00;;;;;;;37.08;20.55;;;;;;;;;;5078347;28;20521;-76
2023/10/20 14:10:27;;;;;;;29.23;19.55;;;;;;;;;;5059645;28;20033;-73
2023/10/20 14:12:54;;;;;;;36.30;19.50;;;;;;;;;;5061228;28;20033;-73
2023/10/20 14:15:20;;;;;;;33.53;18.67;;;;;;;;;;5085076;28;20143;-76
2023/10/20 14:17:47;;;;;;;32.58;20.90;;;;;;;;;;5068681;28;20071;-74
2023/10/20 14:20:13;;;;;;;36.33;18.95;;;;;;;;;;5068707;28;20047;-74
2023/10/20 14:22:39;;;;;;;33.50;19.23;;;;;;;;;;5046210;28;20029;-75
2023/10/20 14:25:05;;;;;;;34.60;19.17;;;;;;;;;;5069850;28;20027;-75
2023/10/20 14:27:33;;;;;;;39.15;20.05;;;;;;;;;;5087030;28;20051;-73
2023/10/20 14:30:00;;;;;;;30.20;20.40;;;;;;;;;;5070749;28;20128;-74
2023/10/20 14:32:26;;;;;;;33.80;19.73;;;;;;;;;;5075501;28;20021;-76
2023/10/20 14:34:52;;;;;;;38.97;19.52;;;;;;;;;;5044766;28;20041;-75
2023/10/20 14:37:17;;;;;;;29.98;18.98;;;;;;;;;;5074856;28;20044;-76
2023/10/20 14:39:43;;;;;;;31.48;18.92;;;;;;;;;;5064039;28;20057;-74
2023/10/20 14:42:10;;;;;;;33.45;18.42;;;;;;;;;;5067508;28;20033;-75
2023/10/20 14:44:36;;;;;;;37.95;21.58;;;;;;;;;;5075639;28;20491;-76
2023/10/20 14:47:01;;;;;;;41.95;24.10;;;;;;;;;;5049986;28;20024;-76
2023/10/20 14:49:27;;;;;;;46.92;24.85;;;;;;;;;;5050893;28;20073;-76
2023/10/20 14:51:53;;;;;;;37.40;20.65;;;;;;;;;;5051273;28;20130;-76
2023/10/20 14:54:18;;;;;;;38.65;20.45;;;;;;;;;;5067795;28;20354;-75
2023/10/20 14:56:44;;;;;;;47.60;23.15;;;;;;;;;;5067307;28;20478;-75